Time;durP1;ratioP1;P1;durP2;ratioP2;P2;SDS_P1;SDS_P2;PMS_P1;PMS_P2;Temp;Humidity;BMP_temperature;BMP_pressure;BME280_temperature;BME280_humidity;BME280_pressure;Samples;Min_cycle;Max_cycle;Signal;HPM_P1;HPM_P2
2022/03/31 00:00:17;;;;;;;6.47;3.75;;;;;;;;;;5028533;28;20045;-73
2022/03/31 00:02:43;;;;;;;7.47;3.70;;;;;;;;;;5027097;28;20029;-74
2022/03/31 00:05:10;;;;;;;7.32;3.75;;;;;;;;;;5024701;28;20048;-73
2022/03/31 00:07:36;;;;;;;7.25;3.40;;;;;;;;;;5025373;28;20025;-72
2022/03/31 00:10:03;;;;;;;11.25;3.42;;;;;;;;;;5027964;28;20033;-72
2022/03/31 00:12:29;;;;;;;6.55;3.92;;;;;;;;;;5022595;28;20025;-70
2022/03/31 00:14:55;;;;;;;7.53;3.40;;;;;;;;;;5021747;28;20030;-73
2022/03/31 00:17:21;;;;;;;9.05;4.10;;;;;;;;;;5006627;28;20442;-72
2022/03/31 00:19:47;;;;;;;7.43;3.97;;;;;;;;;;5024924;28;20116;-73
2022/03/31 00:22:13;;;;;;;8.45;4.30;;;;;;;;;;5027036;28;20029;-73
2022/03/31 00:24:39;;;;;;;5.72;3.95;;;;;;;;;;5025287;28;20041;-71
2022/03/31 00:27:05;;;;;;;9.30;4.40;;;;;;;;;;5008765;28;20064;-72
2022/03/31 00:29:31;;;;;;;9.60;5.10;;;;;;;;;;5025821;28;20561;-71
2022/03/31 00:31:57;;;;;;;9.05;5.00;;;;;;;;;;5027895;28;20132;-71
2022/03/31 00:34:23;;;;;;;9.77;4.90;;;;;;;;;;5026741;28;20038;-71
2022/03/31 00:36:49;;;;;;;7.90;4.80;;;;;;;;;;5027869;28;20040;-72
2022/03/31 00:39:32;;;;;;;8.80;5.53;;;;;;;;;;5026088;28;20422;-72
2022/03/31 00:41:58;;;;;;;8.63;4.95;;;;;;;;;;5024462;28;20524;-72
2022/03/31 00:44:25;;;;;;;7.93;5.45;;;;;;;;;;5023341;28;20109;-72
2022/03/31 00:46:52;;;;;;;11.27;5.85;;;;;;;;;;5025931;28;20026;-73
2022/03/31 00:49:21;;;;;;;9.02;5.70;;;;;;;;;;5027392;28;20300;-72
2022/03/31 00:51:48;;;;;;;7.10;5.65;;;;;;;;;;5027719;28;20040;-72
2022/03/31 00:54:15;;;;;;;7.72;5.55;;;;;;;;;;5027919;28;20026;-72
2022/03/31 00:56:42;;;;;;;8.65;5.35;;;;;;;;;;5024179;28;20033;-73
2022/03/31 00:59:09;;;;;;;8.82;5.20;;;;;;;;;;5026475;28;20029;-73
2022/03/31 01:01:36;;;;;;;8.40;5.50;;;;;;;;;;5026229;28;20060;-73
2022/03/31 01:04:03;;;;;;;9.55;4.90;;;;;;;;;;5027377;28;20033;-73
2022/03/31 01:06:29;;;;;;;8.38;5.53;;;;;;;;;;5027743;28;20021;-71
2022/03/31 01:08:55;;;;;;;7.60;5.05;;;;;;;;;;5027003;28;20034;-73
2022/03/31 01:11:21;;;;;;;8.20;5.30;;;;;;;;;;5025243;28;20040;-72
2022/03/31 01:13:48;;;;;;;8.30;5.07;;;;;;;;;;5024806;28;20071;-74
2022/03/31 01:16:14;;;;;;;10.88;5.75;;;;;;;;;;5027055;28;20045;-73
2022/03/31 01:18:40;;;;;;;8.68;6.05;;;;;;;;;;5024342;28;20037;-71
2022/03/31 01:21:06;;;;;;;11.13;6.40;;;;;;;;;;5027375;28;20040;-71
2022/03/31 01:23:33;;;;;;;9.07;6.10;;;;;;;;;;5024901;28;20479;-72
2022/03/31 01:25:59;;;;;;;10.27;6.55;;;;;;;;;;5026409;28;20179;-71
2022/03/31 01:28:25;;;;;;;9.70;6.13;;;;;;;;;;5024527;28;20432;-71
2022/03/31 01:30:51;;;;;;;11.90;6.70;;;;;;;;;;5027610;28;20045;-72
2022/03/31 01:33:17;;;;;;;12.77;6.13;;;;;;;;;;5026696;28;20034;-72
2022/03/31 01:35:43;;;;;;;10.85;6.53;;;;;;;;;;5026926;28;20028;-71
2022/03/31 01:38:10;;;;;;;13.45;6.80;;;;;;;;;;5026397;28;20052;-71
2022/03/31 01:40:36;;;;;;;9.98;6.20;;;;;;;;;;5026702;28;20037;-71
2022/03/31 01:43:03;;;;;;;12.38;6.57;;;;;;;;;;5025645;28;20543;-71
2022/03/31 01:45:29;;;;;;;12.10;6.75;;;;;;;;;;5019974;28;20037;-71
2022/03/31 01:47:55;;;;;;;10.93;6.30;;;;;;;;;;5026041;28;20040;-72
2022/03/31 01:50:21;;;;;;;9.55;6.07;;;;;;;;;;5027269;28;20033;-72
2022/03/31 01:52:48;;;;;;;9.95;6.55;;;;;;;;;;5026905;28;20111;-71
2022/03/31 01:55:14;;;;;;;9.93;6.30;;;;;;;;;;5024149;28;20056;-71
2022/03/31 01:57:40;;;;;;;10.45;6.50;;;;;;;;;;5025759;28;20052;-71
2022/03/31 02:00:07;;;;;;;13.65;7.57;;;;;;;;;;5030461;28;20029;-71
2022/03/31 02:02:33;;;;;;;11.18;6.55;;;;;;;;;;5028045;28;20088;-71
2022/03/31 02:04:59;;;;;;;12.70;6.43;;;;;;;;;;5025483;28;20486;-72
2022/03/31 02:07:25;;;;;;;11.88;6.43;;;;;;;;;;5029735;28;20026;-72
2022/03/31 02:09:51;;;;;;;11.85;5.53;;;;;;;;;;5012663;28;20116;-72
2022/03/31 02:12:18;;;;;;;10.35;5.90;;;;;;;;;;5029784;28;20116;-70
2022/03/31 02:14:44;;;;;;;11.85;6.00;;;;;;;;;;5030185;28;20025;-71
2022/03/31 02:17:11;;;;;;;9.93;5.55;;;;;;;;;;5030399;28;20038;-71
2022/03/31 02:19:38;;;;;;;15.80;5.57;;;;;;;;;;5025840;28;20482;-72
2022/03/31 02:22:04;;;;;;;10.70;5.95;;;;;;;;;;5028527;28;20053;-71
2022/03/31 02:24:31;;;;;;;12.90;5.75;;;;;;;;;;5024358;28;20034;-71
2022/03/31 02:26:58;;;;;;;11.73;5.70;;;;;;;;;;5025772;28;20017;-72
2022/03/31 02:29:24;;;;;;;10.60;5.55;;;;;;;;;;5024580;28;20581;-72
2022/03/31 02:31:50;;;;;;;11.80;5.55;;;;;;;;;;5029240;28;20033;-71
2022/03/31 02:34:16;;;;;;;10.35;5.43;;;;;;;;;;5029148;28;20582;-72
2022/03/31 02:36:43;;;;;;;9.68;5.47;;;;;;;;;;5028389;28;20029;-71
2022/03/31 02:39:10;;;;;;;16.85;5.85;;;;;;;;;;5024874;28;20116;-71
2022/03/31 02:41:36;;;;;;;13.88;5.63;;;;;;;;;;5029611;28;20490;-72
2022/03/31 02:44:03;;;;;;;8.60;5.50;;;;;;;;;;5027489;28;20063;-72
2022/03/31 02:46:29;;;;;;;12.80;6.03;;;;;;;;;;5028935;28;20545;-70
2022/03/31 02:48:56;;;;;;;19.38;6.13;;;;;;;;;;5027306;28;20046;-71
2022/03/31 02:51:22;;;;;;;15.02;5.60;;;;;;;;;;5027598;28;20028;-69
2022/03/31 02:56:34;;;;;;;17.48;6.88;;;;;;;;;;5028710;28;20094;-70
2022/03/31 02:59:00;;;;;;;12.43;5.43;;;;;;;;;;5025623;28;20038;-69
2022/03/31 03:01:27;;;;;;;16.65;7.47;;;;;;;;;;5024300;28;20120;-70
2022/03/31 03:03:53;;;;;;;18.90;7.85;;;;;;;;;;5027349;28;20084;-69
2022/03/31 03:06:19;;;;;;;19.20;7.65;;;;;;;;;;5029360;28;20037;-72
2022/03/31 03:08:46;;;;;;;19.00;7.43;;;;;;;;;;5027257;28;20043;-69
2022/03/31 03:11:12;;;;;;;17.02;7.70;;;;;;;;;;5028966;28;20511;-71
2022/03/31 03:13:38;;;;;;;16.65;7.60;;;;;;;;;;5025430;28;20086;-70
2022/03/31 03:16:08;;;;;;;16.70;8.35;;;;;;;;;;5026032;28;20037;-70
2022/03/31 03:18:34;;;;;;;15.85;7.72;;;;;;;;;;5024252;28;20025;-71
2022/03/31 03:21:01;;;;;;;21.10;7.88;;;;;;;;;;5027392;28;20040;-72
2022/03/31 03:23:27;;;;;;;20.20;8.23;;;;;;;;;;5028347;28;20017;-72
2022/03/31 03:25:53;;;;;;;20.85;8.20;;;;;;;;;;5028709;28;20079;-72
2022/03/31 03:28:19;;;;;;;18.58;8.18;;;;;;;;;;5028379;28;20087;-71
2022/03/31 03:30:45;;;;;;;24.08;9.00;;;;;;;;;;5027306;28;20033;-70
2022/03/31 03:33:11;;;;;;;19.65;9.82;;;;;;;;;;5027678;28;20025;-71
2022/03/31 03:35:37;;;;;;;24.55;11.18;;;;;;;;;;5028864;28;20056;-71
2022/03/31 03:38:04;;;;;;;21.52;11.02;;;;;;;;;;5027961;28;20033;-71
2022/03/31 03:40:31;;;;;;;21.60;11.38;;;;;;;;;;5027358;28;20451;-71
2022/03/31 03:42:57;;;;;;;24.42;11.98;;;;;;;;;;5025631;28;20117;-70
2022/03/31 03:45:24;;;;;;;27.48;11.77;;;;;;;;;;5026465;28;20126;-71
2022/03/31 03:47:51;;;;;;;25.02;12.35;;;;;;;;;;5027548;28;20046;-71
2022/03/31 03:50:18;;;;;;;23.60;11.88;;;;;;;;;;5028188;28;20029;-72
2022/03/31 03:52:45;;;;;;;24.85;10.93;;;;;;;;;;5027903;28;20563;-72
2022/03/31 03:55:11;;;;;;;22.67;10.93;;;;;;;;;;5027712;28;20037;-70
2022/03/31 03:57:38;;;;;;;19.40;10.90;;;;;;;;;;5027883;28;20483;-71
2022/03/31 04:00:04;;;;;;;17.77;8.50;;;;;;;;;;5025097;28;20115;-71
2022/03/31 04:02:30;;;;;;;19.48;8.85;;;;;;;;;;5021749;28;20133;-71
2022/03/31 04:04:56;;;;;;;19.38;8.65;;;;;;;;;;5026221;28;20080;-71
2022/03/31 04:07:22;;;;;;;16.75;7.32;;;;;;;;;;5011591;28;20026;-71
2022/03/31 04:09:48;;;;;;;15.73;6.75;;;;;;;;;;5027232;28;20053;-72
2022/03/31 04:12:14;;;;;;;13.45;6.63;;;;;;;;;;5027881;28;20033;-71
2022/03/31 04:14:40;;;;;;;12.63;6.25;;;;;;;;;;5024494;28;20170;-71
2022/03/31 04:17:06;;;;;;;11.75;5.78;;;;;;;;;;5028213;28;20163;-72
2022/03/31 04:19:33;;;;;;;14.85;6.10;;;;;;;;;;5027445;28;20541;-71
2022/03/31 04:21:59;;;;;;;15.68;6.15;;;;;;;;;;5021688;28;20446;-69
2022/03/31 04:24:25;;;;;;;14.73;5.72;;;;;;;;;;5024094;28;20025;-71
2022/03/31 04:26:51;;;;;;;10.15;5.22;;;;;;;;;;5026686;28;20574;-71
2022/03/31 04:29:17;;;;;;;11.75;5.43;;;;;;;;;;5024516;28;20029;-70
2022/03/31 04:31:43;;;;;;;14.70;5.40;;;;;;;;;;5024626;28;20161;-71
2022/03/31 04:34:15;;;;;;;13.77;6.38;;;;;;;;;;5024651;28;20075;-70
2022/03/31 04:36:41;;;;;;;11.65;5.55;;;;;;;;;;5028168;28;20026;-72
2022/03/31 04:39:07;;;;;;;12.07;5.07;;;;;;;;;;5027059;28;20041;-72
2022/03/31 04:41:33;;;;;;;10.13;5.00;;;;;;;;;;5025900;28;20025;-72
2022/03/31 04:43:59;;;;;;;15.18;4.90;;;;;;;;;;5027182;28;20494;-72
2022/03/31 04:46:25;;;;;;;10.07;4.35;;;;;;;;;;5026665;28;20095;-71
2022/03/31 04:48:51;;;;;;;15.43;5.47;;;;;;;;;;5027169;28;20050;-71
2022/03/31 04:51:17;;;;;;;12.93;4.25;;;;;;;;;;5023829;28;20112;-70
2022/03/31 04:53:43;;;;;;;16.10;4.70;;;;;;;;;;5020684;28;20132;-71
2022/03/31 04:56:09;;;;;;;10.80;4.53;;;;;;;;;;5024719;28;20041;-71
2022/03/31 04:58:36;;;;;;;6.95;4.18;;;;;;;;;;5026343;28;20058;-71
2022/03/31 05:01:02;;;;;;;11.80;4.13;;;;;;;;;;5026845;28;20075;-71
2022/03/31 05:03:28;;;;;;;6.80;4.43;;;;;;;;;;5025190;28;20512;-72
2022/03/31 05:05:54;;;;;;;13.13;3.88;;;;;;;;;;5027304;28;20563;-71
2022/03/31 05:08:20;;;;;;;11.00;5.03;;;;;;;;;;5027112;28;20091;-73
2022/03/31 05:10:46;;;;;;;14.60;4.13;;;;;;;;;;5024138;28;20483;-71
2022/03/31 05:13:12;;;;;;;11.10;4.35;;;;;;;;;;5021383;28;20033;-72
2022/03/31 05:15:39;;;;;;;14.05;4.70;;;;;;;;;;5026291;28;20034;-71
2022/03/31 05:18:05;;;;;;;16.42;5.75;;;;;;;;;;5025273;28;20034;-73
2022/03/31 05:20:31;;;;;;;15.98;5.15;;;;;;;;;;5027575;28;20116;-72
2022/03/31 05:22:57;;;;;;;11.35;4.63;;;;;;;;;;5025892;28;20055;-71
2022/03/31 05:25:23;;;;;;;16.23;4.85;;;;;;;;;;5023621;28;20048;-71
2022/03/31 05:27:49;;;;;;;12.27;4.80;;;;;;;;;;5022728;28;20038;-72
2022/03/31 05:30:19;;;;;;;14.20;4.53;;;;;;;;;;5030764;28;20048;-73
2022/03/31 05:32:46;;;;;;;13.10;4.90;;;;;;;;;;5030300;28;20086;-72
2022/03/31 05:35:13;;;;;;;16.25;5.43;;;;;;;;;;5029611;28;20037;-73
2022/03/31 05:37:40;;;;;;;18.60;4.80;;;;;;;;;;5028834;28;20093;-73
2022/03/31 05:40:07;;;;;;;11.90;5.28;;;;;;;;;;5030660;28;20068;-73
2022/03/31 05:42:33;;;;;;;22.88;5.88;;;;;;;;;;5025345;28;20140;-71
2022/03/31 05:45:00;;;;;;;11.63;5.63;;;;;;;;;;5024706;28;20041;-72
2022/03/31 05:47:26;;;;;;;11.02;5.30;;;;;;;;;;5022771;28;20040;-71
2022/03/31 05:49:53;;;;;;;10.85;4.88;;;;;;;;;;5025089;28;20160;-73
2022/03/31 05:52:19;;;;;;;12.65;5.20;;;;;;;;;;5028079;28;20033;-72
2022/03/31 05:54:45;;;;;;;10.85;6.35;;;;;;;;;;5026583;28;20025;-73
2022/03/31 05:57:11;;;;;;;18.10;7.57;;;;;;;;;;5028161;28;20552;-72
2022/03/31 05:59:37;;;;;;;14.27;5.97;;;;;;;;;;5030130;28;20029;-72
2022/03/31 06:02:03;;;;;;;14.13;6.60;;;;;;;;;;5028255;28;20063;-73
2022/03/31 06:04:29;;;;;;;12.93;6.85;;;;;;;;;;5028203;28;20112;-72
2022/03/31 06:06:55;;;;;;;15.88;6.80;;;;;;;;;;5029177;28;20061;-72
2022/03/31 06:09:21;;;;;;;13.57;6.75;;;;;;;;;;5028910;28;20041;-73
2022/03/31 06:11:47;;;;;;;14.32;6.47;;;;;;;;;;5028067;28;20609;-72
2022/03/31 06:14:13;;;;;;;13.77;6.80;;;;;;;;;;5027774;28;20117;-71
2022/03/31 06:16:39;;;;;;;20.52;7.20;;;;;;;;;;5026028;28;20043;-72
2022/03/31 06:19:08;;;;;;;18.83;7.82;;;;;;;;;;5027038;28;20041;-72
2022/03/31 06:21:34;;;;;;;15.68;7.47;;;;;;;;;;5020579;28;20487;-73
2022/03/31 06:24:00;;;;;;;15.07;7.35;;;;;;;;;;5023141;28;20537;-73
2022/03/31 06:26:27;;;;;;;15.85;7.47;;;;;;;;;;5026216;28;20364;-74
2022/03/31 06:28:53;;;;;;;17.05;7.40;;;;;;;;;;5028451;28;20064;-73
2022/03/31 06:31:19;;;;;;;17.50;8.27;;;;;;;;;;5028652;28;20035;-73
2022/03/31 06:33:45;;;;;;;16.50;7.93;;;;;;;;;;5029519;28;20034;-73
2022/03/31 06:36:11;;;;;;;17.05;6.93;;;;;;;;;;5028702;28;20409;-71
2022/03/31 06:38:37;;;;;;;17.98;7.00;;;;;;;;;;5028415;28;20041;-73
2022/03/31 06:41:06;;;;;;;22.08;8.32;;;;;;;;;;5027624;28;20033;-72
2022/03/31 06:43:34;;;;;;;12.77;7.10;;;;;;;;;;5028270;28;20404;-73
2022/03/31 06:46:00;;;;;;;18.63;7.55;;;;;;;;;;5029244;28;20100;-72
2022/03/31 06:48:27;;;;;;;15.93;6.47;;;;;;;;;;5028642;28;20037;-73
2022/03/31 06:50:54;;;;;;;14.90;6.97;;;;;;;;;;5027835;28;20045;-74
2022/03/31 06:53:20;;;;;;;12.98;6.45;;;;;;;;;;5027811;28;20069;-73
2022/03/31 06:55:46;;;;;;;15.95;7.13;;;;;;;;;;5026093;28;20037;-73
2022/03/31 06:58:12;;;;;;;12.75;7.28;;;;;;;;;;5027755;28;20498;-73
2022/03/31 07:00:38;;;;;;;13.38;6.53;;;;;;;;;;5011393;28;20037;-73
2022/03/31 07:03:04;;;;;;;10.77;5.95;;;;;;;;;;5027607;28;20018;-73
2022/03/31 07:05:30;;;;;;;12.02;5.82;;;;;;;;;;5028192;28;20116;-72
2022/03/31 07:07:56;;;;;;;12.75;5.90;;;;;;;;;;5011616;28;20116;-73
2022/03/31 07:10:22;;;;;;;11.32;5.63;;;;;;;;;;5029364;28;20495;-73
2022/03/31 07:12:49;;;;;;;15.75;5.72;;;;;;;;;;5029846;28;20033;-72
2022/03/31 07:15:15;;;;;;;10.75;5.57;;;;;;;;;;5011426;28;20025;-72
2022/03/31 07:17:41;;;;;;;8.95;4.55;;;;;;;;;;5028716;28;20052;-74
2022/03/31 07:20:08;;;;;;;14.10;5.53;;;;;;;;;;5027319;28;20079;-73
2022/03/31 07:22:35;;;;;;;11.07;5.32;;;;;;;;;;5028022;28;20128;-72
2022/03/31 07:25:01;;;;;;;13.48;5.20;;;;;;;;;;5027888;28;20386;-73
2022/03/31 07:27:28;;;;;;;7.10;4.35;;;;;;;;;;5030752;28;20036;-73
2022/03/31 07:29:54;;;;;;;11.07;5.05;;;;;;;;;;5027758;28;20486;-73
2022/03/31 07:32:20;;;;;;;10.93;4.75;;;;;;;;;;5027037;28;20217;-72
2022/03/31 07:34:46;;;;;;;11.02;4.97;;;;;;;;;;5027008;28;20139;-73
2022/03/31 07:37:11;;;;;;;12.38;5.18;;;;;;;;;;5008895;28;20190;-73
2022/03/31 07:39:41;;;;;;;8.52;4.78;;;;;;;;;;5027343;28;20487;-75
2022/03/31 07:42:07;;;;;;;12.77;5.07;;;;;;;;;;5027378;28;20087;-74
2022/03/31 07:44:34;;;;;;;8.18;4.55;;;;;;;;;;5026685;28;20029;-73
2022/03/31 07:47:00;;;;;;;9.65;4.90;;;;;;;;;;5027528;28;20040;-72
2022/03/31 07:49:26;;;;;;;10.48;5.18;;;;;;;;;;5026877;28;20126;-72
2022/03/31 07:51:52;;;;;;;8.65;5.10;;;;;;;;;;5028616;28;20113;-74
2022/03/31 07:54:19;;;;;;;9.82;4.78;;;;;;;;;;5021753;28;20109;-73
2022/03/31 07:56:46;;;;;;;8.85;4.85;;;;;;;;;;5026034;28;20098;-73
2022/03/31 07:59:12;;;;;;;8.23;4.75;;;;;;;;;;5026874;28;20483;-73
2022/03/31 08:01:38;;;;;;;8.43;4.47;;;;;;;;;;5026577;28;20606;-74
2022/03/31 08:04:06;;;;;;;6.28;4.50;;;;;;;;;;5025475;28;20509;-74
2022/03/31 08:06:32;;;;;;;5.57;4.15;;;;;;;;;;5027856;28;20068;-74
2022/03/31 08:08:58;;;;;;;5.45;4.18;;;;;;;;;;5026504;28;20037;-74
2022/03/31 08:11:24;;;;;;;5.80;3.83;;;;;;;;;;5026350;28;20044;-73
2022/03/31 08:13:50;;;;;;;7.18;4.47;;;;;;;;;;5027637;28;20399;-73
2022/03/31 08:16:17;;;;;;;4.57;3.75;;;;;;;;;;5027190;28;20038;-73
2022/03/31 08:18:43;;;;;;;6.10;4.05;;;;;;;;;;5028461;28;20041;-73
2022/03/31 08:21:09;;;;;;;6.28;4.50;;;;;;;;;;5027852;28;20041;-74
2022/03/31 08:23:35;;;;;;;5.72;4.18;;;;;;;;;;5028653;28;20140;-73
2022/03/31 08:26:01;;;;;;;7.05;5.13;;;;;;;;;;5027441;28;20111;-74
2022/03/31 08:28:31;;;;;;;6.82;5.03;;;;;;;;;;5027646;28;20025;-73
2022/03/31 08:30:57;;;;;;;8.77;5.05;;;;;;;;;;5028495;28;20045;-73
2022/03/31 08:33:23;;;;;;;7.90;5.75;;;;;;;;;;5027657;28;20039;-73
2022/03/31 08:35:49;;;;;;;8.93;6.53;;;;;;;;;;5026775;28;21552;-73
2022/03/31 08:38:15;;;;;;;8.32;6.00;;;;;;;;;;5025491;28;20471;-73
2022/03/31 08:40:43;;;;;;;9.48;7.20;;;;;;;;;;5028326;28;20128;-73
2022/03/31 08:43:09;;;;;;;10.73;6.93;;;;;;;;;;5027932;28;20398;-73
2022/03/31 08:45:36;;;;;;;10.02;7.25;;;;;;;;;;5027485;28;20025;-72
2022/03/31 08:48:03;;;;;;;10.82;7.90;;;;;;;;;;5024910;28;20053;-73
2022/03/31 08:50:29;;;;;;;11.40;7.75;;;;;;;;;;5026817;28;20029;-73
2022/03/31 08:52:55;;;;;;;12.70;8.07;;;;;;;;;;5026127;28;20056;-73
2022/03/31 08:55:22;;;;;;;11.07;8.07;;;;;;;;;;5028016;28;20045;-73
2022/03/31 08:57:50;;;;;;;11.30;8.10;;;;;;;;;;5026346;28;20087;-74
2022/03/31 09:00:18;;;;;;;10.95;8.30;;;;;;;;;;5024481;28;20482;-74
2022/03/31 09:02:56;;;;;;;9.25;7.47;;;;;;;;;;5031735;28;20096;-74
2022/03/31 09:05:22;;;;;;;10.32;8.00;;;;;;;;;;5024992;28;20104;-74
2022/03/31 09:08:09;;;;;;;9.40;7.20;;;;;;;;;;5013587;28;20060;-73
2022/03/31 09:10:36;;;;;;;10.65;7.57;;;;;;;;;;5017742;28;20084;-73
2022/03/31 09:13:04;;;;;;;9.15;7.35;;;;;;;;;;5031395;28;20045;-74
2022/03/31 09:15:31;;;;;;;9.88;7.43;;;;;;;;;;5030140;28;20065;-74
2022/03/31 09:17:58;;;;;;;11.13;8.10;;;;;;;;;;5030009;28;20041;-75
2022/03/31 09:20:24;;;;;;;9.55;7.55;;;;;;;;;;5029524;28;20037;-72
2022/03/31 09:22:50;;;;;;;9.10;7.03;;;;;;;;;;5031107;28;20017;-74
2022/03/31 09:25:24;;;;;;;12.70;8.25;;;;;;;;;;5031340;28;20498;-74
2022/03/31 09:27:50;;;;;;;10.73;7.82;;;;;;;;;;5031155;28;20057;-75
2022/03/31 09:30:17;;;;;;;10.50;8.25;;;;;;;;;;5031257;28;20021;-75
2022/03/31 09:32:50;;;;;;;10.18;7.97;;;;;;;;;;5029752;28;20041;-75
2022/03/31 09:35:20;;;;;;;9.55;7.93;;;;;;;;;;5029880;28;20267;-74
2022/03/31 09:37:49;;;;;;;12.20;8.00;;;;;;;;;;5018598;28;20037;-75
2022/03/31 09:40:15;;;;;;;11.50;9.00;;;;;;;;;;5031518;28;20442;-75
2022/03/31 09:42:41;;;;;;;12.52;9.43;;;;;;;;;;5028593;28;20033;-72
2022/03/31 09:45:10;;;;;;;14.80;10.48;;;;;;;;;;5029695;28;20029;-74
2022/03/31 09:47:43;;;;;;;12.35;9.95;;;;;;;;;;5029403;28;20045;-74
2022/03/31 09:50:10;;;;;;;16.95;10.57;;;;;;;;;;5030855;28;20124;-75
2022/03/31 09:52:38;;;;;;;13.27;10.18;;;;;;;;;;5030504;28;20049;-75
2022/03/31 09:55:04;;;;;;;11.95;9.05;;;;;;;;;;5029840;28;20083;-75
2022/03/31 09:57:31;;;;;;;11.80;8.68;;;;;;;;;;5030394;28;20120;-75
2022/03/31 09:59:58;;;;;;;11.70;8.88;;;;;;;;;;5030467;28;20025;-75
2022/03/31 10:02:24;;;;;;;11.30;8.75;;;;;;;;;;5029797;28;20025;-75
2022/03/31 10:04:51;;;;;;;11.05;8.40;;;;;;;;;;5012657;28;20034;-74
2022/03/31 10:07:18;;;;;;;10.68;8.20;;;;;;;;;;5026545;28;20026;-75
2022/03/31 10:09:44;;;;;;;12.95;8.68;;;;;;;;;;5030258;28;20510;-74
2022/03/31 10:12:24;;;;;;;12.93;9.57;;;;;;;;;;5028464;28;20166;-74
2022/03/31 10:15:21;;;;;;;11.63;8.38;;;;;;;;;;5030054;28;20037;-74
2022/03/31 10:17:49;;;;;;;11.82;8.85;;;;;;;;;;5017134;28;20125;-74
2022/03/31 10:20:16;;;;;;;12.68;9.38;;;;;;;;;;5030158;28;20033;-74
2022/03/31 10:25:48;;;;;;;11.85;8.65;;;;;;;;;;5025244;28;20044;-74
2022/03/31 10:28:14;;;;;;;10.38;8.00;;;;;;;;;;5029596;28;20489;-74
2022/03/31 10:30:43;;;;;;;13.43;9.48;;;;;;;;;;5029202;28;20032;-74
2022/03/31 10:33:10;;;;;;;11.23;8.38;;;;;;;;;;5027887;28;20107;-75
2022/03/31 10:35:40;;;;;;;11.07;8.10;;;;;;;;;;5033418;28;20480;-74
2022/03/31 10:38:17;;;;;;;13.88;9.93;;;;;;;;;;5027589;28;20033;-74
2022/03/31 10:40:44;;;;;;;12.43;8.98;;;;;;;;;;5010564;28;20049;-73
2022/03/31 10:43:20;;;;;;;16.08;10.30;;;;;;;;;;5027254;28;20099;-77
2022/03/31 10:45:47;;;;;;;12.38;9.63;;;;;;;;;;5029978;28;20029;-75
2022/03/31 10:48:21;;;;;;;12.48;9.18;;;;;;;;;;5028097;28;20105;-75
2022/03/31 10:50:48;;;;;;;12.27;8.50;;;;;;;;;;5028154;28;20037;-75
2022/03/31 10:53:15;;;;;;;11.98;9.25;;;;;;;;;;5028762;28;20029;-75
2022/03/31 10:55:48;;;;;;;11.77;8.65;;;;;;;;;;5028510;28;20047;-75
2022/03/31 10:58:33;;;;;;;14.65;9.48;;;;;;;;;;5028601;28;20029;-75
2022/03/31 11:01:02;;;;;;;12.55;9.07;;;;;;;;;;5028252;28;20123;-74
2022/03/31 11:03:28;;;;;;;13.60;9.88;;;;;;;;;;5028674;28;20037;-75
2022/03/31 11:05:59;;;;;;;12.57;9.38;;;;;;;;;;5029916;28;20032;-75
2022/03/31 11:08:25;;;;;;;11.40;8.48;;;;;;;;;;5028377;28;20112;-74
2022/03/31 11:10:52;;;;;;;18.30;10.05;;;;;;;;;;5029686;28;20098;-74
2022/03/31 11:13:20;;;;;;;14.77;9.73;;;;;;;;;;5029043;28;20029;-74
2022/03/31 11:15:54;;;;;;;12.70;8.85;;;;;;;;;;5028119;28;20032;-75
2022/03/31 11:18:21;;;;;;;14.18;9.45;;;;;;;;;;5027362;28;20060;-75
2022/03/31 11:21:01;;;;;;;14.93;9.52;;;;;;;;;;5029233;28;20420;-74
2022/03/31 11:23:28;;;;;;;12.45;9.23;;;;;;;;;;5028121;28;20112;-74
2022/03/31 11:25:54;;;;;;;12.65;9.75;;;;;;;;;;5030035;28;20030;-74
2022/03/31 11:28:20;;;;;;;14.43;10.10;;;;;;;;;;5029387;28;20448;-74
2022/03/31 11:30:48;;;;;;;14.30;10.18;;;;;;;;;;5028723;28;20416;-76
2022/03/31 11:33:14;;;;;;;11.38;7.97;;;;;;;;;;5028526;28;20022;-75
2022/03/31 11:35:40;;;;;;;13.13;9.50;;;;;;;;;;5028760;28;20057;-75
2022/03/31 11:38:10;;;;;;;12.20;8.98;;;;;;;;;;5028480;28;20037;-76
2022/03/31 11:40:40;;;;;;;14.57;10.57;;;;;;;;;;5028784;28;20087;-75
2022/03/31 11:43:09;;;;;;;11.82;8.38;;;;;;;;;;5028470;28;20030;-75
2022/03/31 11:45:37;;;;;;;11.27;8.15;;;;;;;;;;5028281;28;20025;-74
2022/03/31 11:48:08;;;;;;;12.18;9.57;;;;;;;;;;5027461;28;20121;-75
2022/03/31 11:50:35;;;;;;;14.00;9.85;;;;;;;;;;5028887;28;20065;-75
2022/03/31 11:53:01;;;;;;;10.85;7.97;;;;;;;;;;5028265;28;20035;-74
2022/03/31 11:55:28;;;;;;;10.57;8.40;;;;;;;;;;5028675;28;20045;-75
2022/03/31 11:57:59;;;;;;;10.75;8.30;;;;;;;;;;5026069;28;20033;-74
2022/03/31 12:00:26;;;;;;;10.68;8.20;;;;;;;;;;5027229;28;20115;-75
2022/03/31 12:02:59;;;;;;;12.85;9.55;;;;;;;;;;5027803;28;20026;-74
2022/03/31 12:05:26;;;;;;;11.15;8.30;;;;;;;;;;5026386;28;20120;-75
2022/03/31 12:07:52;;;;;;;9.38;7.72;;;;;;;;;;5023358;28;20100;-73
2022/03/31 12:10:18;;;;;;;13.77;8.52;;;;;;;;;;5024643;28;20156;-76
2022/03/31 12:12:52;;;;;;;9.82;7.07;;;;;;;;;;5009505;28;20120;-73
2022/03/31 12:15:28;;;;;;;10.45;7.50;;;;;;;;;;5028268;28;20029;-74
2022/03/31 12:17:57;;;;;;;10.93;6.93;;;;;;;;;;5021872;28;20021;-76
2022/03/31 12:20:23;;;;;;;10.23;8.02;;;;;;;;;;5026099;28;20041;-75
2022/03/31 12:22:49;;;;;;;8.68;6.90;;;;;;;;;;5028295;28;20494;-75
2022/03/31 12:25:26;;;;;;;7.15;5.78;;;;;;;;;;5028035;28;20029;-74
2022/03/31 12:27:52;;;;;;;8.63;6.15;;;;;;;;;;5028176;28;20022;-75
2022/03/31 12:30:18;;;;;;;8.38;6.35;;;;;;;;;;5026674;28;20036;-74
2022/03/31 12:32:48;;;;;;;8.00;6.13;;;;;;;;;;5026973;28;20044;-74
2022/03/31 12:35:14;;;;;;;7.95;5.80;;;;;;;;;;5027242;28;20025;-76
2022/03/31 12:37:45;;;;;;;6.97;5.80;;;;;;;;;;5026323;28;20120;-75
2022/03/31 12:40:16;;;;;;;6.22;4.82;;;;;;;;;;5027853;28;20117;-75
2022/03/31 12:42:52;;;;;;;5.32;4.82;;;;;;;;;;5028038;28;20029;-76
2022/03/31 12:45:18;;;;;;;6.05;5.18;;;;;;;;;;5027652;28;20060;-75
2022/03/31 12:47:47;;;;;;;6.18;5.40;;;;;;;;;;5029034;28;20108;-76
2022/03/31 12:50:16;;;;;;;7.10;6.05;;;;;;;;;;5028078;28;20062;-74
2022/03/31 12:52:51;;;;;;;6.00;5.40;;;;;;;;;;5028371;28;20039;-75
2022/03/31 12:55:17;;;;;;;6.07;4.88;;;;;;;;;;5026830;28;20030;-74
2022/03/31 12:57:54;;;;;;;6.28;5.35;;;;;;;;;;5028364;28;20042;-74
2022/03/31 13:00:21;;;;;;;8.73;5.50;;;;;;;;;;5027681;28;20032;-76
2022/03/31 13:02:48;;;;;;;6.55;5.38;;;;;;;;;;5028345;28;20116;-74
2022/03/31 13:05:18;;;;;;;4.57;3.92;;;;;;;;;;5029140;28;20022;-75
2022/03/31 13:07:45;;;;;;;5.22;4.38;;;;;;;;;;5028395;28;20554;-74
2022/03/31 13:10:11;;;;;;;6.03;4.53;;;;;;;;;;5028382;28;20040;-75
2022/03/31 13:12:37;;;;;;;6.10;4.85;;;;;;;;;;5026757;28;20204;-77
2022/03/31 13:15:03;;;;;;;5.20;4.05;;;;;;;;;;5026521;28;20037;-76
2022/03/31 13:17:30;;;;;;;4.55;3.75;;;;;;;;;;5027299;28;20098;-75
2022/03/31 13:19:57;;;;;;;4.05;3.50;;;;;;;;;;5027445;28;20037;-73
2022/03/31 13:22:25;;;;;;;7.28;4.35;;;;;;;;;;5029013;28;20053;-74
2022/03/31 13:24:54;;;;;;;4.82;3.90;;;;;;;;;;5028536;28;20022;-74
2022/03/31 13:27:25;;;;;;;4.57;3.67;;;;;;;;;;5027852;28;20450;-75
2022/03/31 13:29:51;;;;;;;3.55;2.95;;;;;;;;;;5027974;28;20095;-73
2022/03/31 13:32:17;;;;;;;4.43;3.10;;;;;;;;;;5028250;28;20025;-74
2022/03/31 13:34:46;;;;;;;3.45;3.03;;;;;;;;;;5025726;28;20084;-74
2022/03/31 13:37:13;;;;;;;3.60;2.80;;;;;;;;;;5028598;28;20022;-74
2022/03/31 13:39:39;;;;;;;3.70;2.78;;;;;;;;;;5027112;28;20415;-74
2022/03/31 13:42:06;;;;;;;3.60;2.80;;;;;;;;;;5026529;28;20087;-73
2022/03/31 13:44:32;;;;;;;3.95;2.90;;;;;;;;;;5026315;28;20092;-74
2022/03/31 13:46:59;;;;;;;5.20;2.90;;;;;;;;;;5025981;28;20448;-73
2022/03/31 13:49:25;;;;;;;5.13;3.85;;;;;;;;;;5030313;28;20053;-73
2022/03/31 13:51:52;;;;;;;4.22;3.03;;;;;;;;;;5030011;28;20474;-74
2022/03/31 13:54:19;;;;;;;4.25;3.03;;;;;;;;;;5031370;28;20033;-77
2022/03/31 13:56:47;;;;;;;4.65;3.55;;;;;;;;;;5031709;28;20044;-75
2022/03/31 14:01:59;;;;;;;4.28;3.38;;;;;;;;;;5029543;28;20080;-75
2022/03/31 14:04:26;;;;;;;5.00;2.78;;;;;;;;;;5027553;28;20462;-74
2022/03/31 14:06:52;;;;;;;4.82;3.35;;;;;;;;;;5030129;28;20040;-75
2022/03/31 14:09:19;;;;;;;4.97;3.38;;;;;;;;;;5028854;28;20028;-74
2022/03/31 14:11:46;;;;;;;5.05;3.85;;;;;;;;;;5030021;28;20055;-72
2022/03/31 14:14:13;;;;;;;5.03;3.42;;;;;;;;;;5029427;28;20061;-72
2022/03/31 14:16:44;;;;;;;7.65;3.50;;;;;;;;;;5029207;28;20040;-75
2022/03/31 14:19:11;;;;;;;4.22;2.97;;;;;;;;;;5028433;28;20509;-76
2022/03/31 14:21:38;;;;;;;4.03;2.97;;;;;;;;;;5031385;28;20124;-75
2022/03/31 14:24:05;;;;;;;3.45;2.40;;;;;;;;;;5030921;28;20036;-75
2022/03/31 14:26:31;;;;;;;3.90;2.95;;;;;;;;;;5030083;28;20074;-74
2022/03/31 14:28:58;;;;;;;3.92;2.90;;;;;;;;;;5029766;28;20057;-74
2022/03/31 14:31:25;;;;;;;3.85;2.90;;;;;;;;;;5030460;28;20115;-75
2022/03/31 14:33:52;;;;;;;5.03;3.22;;;;;;;;;;5030309;28;20057;-73
2022/03/31 14:36:19;;;;;;;4.25;3.05;;;;;;;;;;5031348;28;20076;-74
2022/03/31 14:38:45;;;;;;;4.03;3.00;;;;;;;;;;5031053;28;20025;-75
2022/03/31 14:41:13;;;;;;;3.38;2.60;;;;;;;;;;5030349;28;20065;-74